createdAt,value
2023-01-13T00:01:55.821Z,89.30
2023-01-13T00:04:28.961Z,89.18
2023-01-13T00:06:59.263Z,88.92
2023-01-13T00:09:29.610Z,88.18
2023-01-13T00:11:59.998Z,87.62
2023-01-13T00:14:32.410Z,87.85
2023-01-13T00:17:02.706Z,87.04
2023-01-13T00:19:35.877Z,87.77
2023-01-13T00:22:06.579Z,87.65
2023-01-13T00:24:37.010Z,87.25
2023-01-13T00:27:07.456Z,86.98
2023-01-13T00:29:37.860Z,86.25
2023-01-13T00:32:08.342Z,85.87
2023-01-13T00:34:41.318Z,85.66
2023-01-13T00:37:13.221Z,85.34
2023-01-13T00:39:43.573Z,84.87
2023-01-13T00:42:26.272Z,84.74
2023-01-13T00:44:56.667Z,84.86
2023-01-13T00:47:27.075Z,84.59
2023-01-13T00:50:00.154Z,84.36
2023-01-13T00:52:30.471Z,83.67
2023-01-13T00:55:01.051Z,83.67
2023-01-13T00:57:31.487Z,83.34
2023-01-13T01:00:01.903Z,83.48
2023-01-13T01:02:32.325Z,83.18
2023-01-13T01:05:05.404Z,83.18
2023-01-13T01:07:35.840Z,83.22
2023-01-13T01:10:06.466Z,83.36
2023-01-13T01:12:38.232Z,84.12
2023-01-13T01:15:11.080Z,84.60
2023-01-13T01:17:41.554Z,85.00
2023-01-13T01:20:15.722Z,86.02
2023-01-13T01:22:46.170Z,86.94
2023-01-13T01:25:16.573Z,87.48
2023-01-13T01:27:46.933Z,87.62
2023-01-13T01:30:18.606Z,88.42
2023-01-13T01:32:48.980Z,88.17
2023-01-13T01:35:22.002Z,88.60
2023-01-13T01:37:52.431Z,88.76
2023-01-13T01:40:22.975Z,88.76
2023-01-13T01:43:05.733Z,88.44
2023-01-13T01:45:36.411Z,88.42
2023-01-13T01:48:09.183Z,87.59
2023-01-13T01:50:43.392Z,88.30
2023-01-13T01:53:19.706Z,87.84
2023-01-13T01:55:50.665Z,87.49
2023-01-13T01:58:26.216Z,87.01
2023-01-13T02:00:56.711Z,87.18
2023-01-13T02:03:27.290Z,86.66
2023-01-13T02:06:00.542Z,86.75
2023-01-13T02:08:30.953Z,86.99
2023-01-13T02:11:01.387Z,85.99
2023-01-13T02:13:29.311Z,85.92
2023-01-13T02:16:09.427Z,86.30
2023-01-13T02:18:58.228Z,86.38
2023-01-13T02:21:58.319Z,86.35
2023-01-13T02:24:58.549Z,86.34
2023-01-13T02:27:50.615Z,86.49
2023-01-13T02:30:48.271Z,86.80
2023-01-13T02:33:39.416Z,86.51
2023-01-13T02:36:18.402Z,86.02
2023-01-13T02:38:55.485Z,86.17
2023-01-13T02:41:44.721Z,86.37
2023-01-13T02:44:19.894Z,86.43
2023-01-13T02:47:00.832Z,85.95
2023-01-13T02:49:39.044Z,86.13
2023-01-13T02:52:15.246Z,85.88
2023-01-13T02:54:54.189Z,85.99
2023-01-13T02:57:27.174Z,86.65
2023-01-13T02:59:59.124Z,86.42
2023-01-13T03:02:32.090Z,86.26
2023-01-13T03:05:03.410Z,86.23
2023-01-13T03:07:58.544Z,86.74
2023-01-13T03:10:52.873Z,86.95
2023-01-13T03:13:41.122Z,87.26
2023-01-13T03:16:26.844Z,87.53
2023-01-13T03:19:13.361Z,87.48
2023-01-13T03:21:51.673Z,87.50
2023-01-13T03:24:29.791Z,87.54
2023-01-13T03:27:07.602Z,88.03
2023-01-13T03:29:42.359Z,87.99
2023-01-13T03:32:18.637Z,88.02
2023-01-13T03:34:55.865Z,87.57
2023-01-13T03:37:34.556Z,87.63
2023-01-13T03:40:12.015Z,87.54
2023-01-13T03:43:06.890Z,87.91
2023-01-13T03:45:36.536Z,87.84
2023-01-13T03:48:10.745Z,88.07
2023-01-13T03:50:50.247Z,88.37
2023-01-13T03:53:24.119Z,88.54
2023-01-13T03:55:59.788Z,88.10
2023-01-13T03:58:36.119Z,87.93
2023-01-13T04:01:16.180Z,88.00
2023-01-13T04:03:54.970Z,88.22
2023-01-13T04:06:40.387Z,87.63
2023-01-13T04:09:17.937Z,88.24
2023-01-13T04:11:56.075Z,88.35
2023-01-13T04:14:31.106Z,88.26
2023-01-13T04:17:01.478Z,87.86
2023-01-13T04:19:33.087Z,87.67
2023-01-13T04:22:06.047Z,87.86
2023-01-13T04:24:37.280Z,87.90
2023-01-13T04:27:07.845Z,87.84
2023-01-13T04:29:38.211Z,88.19
2023-01-13T04:32:08.679Z,88.22
2023-01-13T04:34:39.034Z,87.91
2023-01-13T04:37:12.046Z,87.68
2023-01-13T04:39:42.405Z,88.05
2023-01-13T04:42:12.757Z,87.99
2023-01-13T04:44:43.117Z,87.90
2023-01-13T04:47:13.419Z,87.87
2023-01-13T04:49:43.821Z,87.81
2023-01-13T04:52:16.888Z,88.00
2023-01-13T04:54:47.157Z,87.86
2023-01-13T04:57:17.471Z,87.64
2023-01-13T04:59:47.883Z,87.33
2023-01-13T05:02:20.014Z,87.19
2023-01-13T05:04:50.964Z,87.28
2023-01-13T05:07:23.926Z,87.75
2023-01-13T05:09:54.267Z,87.78
2023-01-13T05:12:37.305Z,87.87
2023-01-13T05:15:21.859Z,88.21
2023-01-13T05:17:52.814Z,88.93
2023-01-13T05:20:23.485Z,88.95
2023-01-13T05:23:08.868Z,89.08
2023-01-13T05:25:44.471Z,90.09
2023-01-13T05:28:15.119Z,90.17
2023-01-13T05:30:49.639Z,90.17
2023-01-13T05:33:23.156Z,90.15
2023-01-13T05:35:53.493Z,90.13
2023-01-13T05:38:26.488Z,89.94
2023-01-13T05:41:14.596Z,89.76
2023-01-13T05:43:44.961Z,89.44
2023-01-13T05:46:17.833Z,89.20
2023-01-13T05:48:48.470Z,88.60
2023-01-13T05:51:19.339Z,88.42
2023-01-13T05:53:52.361Z,88.17
2023-01-13T05:56:22.659Z,87.72
2023-01-13T05:58:52.943Z,87.34
2023-01-13T06:01:23.447Z,87.25
2023-01-13T06:03:53.842Z,86.54
2023-01-13T06:06:24.232Z,86.69
2023-01-13T06:08:57.316Z,86.21
2023-01-13T06:11:27.539Z,86.57
2023-01-13T06:13:57.805Z,86.67
2023-01-13T06:16:28.192Z,85.93
2023-01-13T06:18:58.687Z,86.04
2023-01-13T06:21:29.084Z,86.54
2023-01-13T06:24:02.806Z,86.52
2023-01-13T06:26:38.682Z,86.42
2023-01-13T06:29:10.248Z,85.90
2023-01-13T06:31:42.771Z,86.32
2023-01-13T06:34:16.899Z,86.06
2023-01-13T06:36:51.998Z,85.84
2023-01-13T06:39:30.801Z,85.59
2023-01-13T06:42:14.404Z,85.42
2023-01-13T06:44:44.818Z,84.93
2023-01-13T06:47:15.202Z,85.39
2023-01-13T06:49:45.546Z,85.80
2023-01-13T06:52:15.840Z,85.60
2023-01-13T06:54:48.857Z,85.70
2023-01-13T06:57:19.135Z,85.35
2023-01-13T06:59:50.705Z,85.53
2023-01-13T07:02:21.264Z,84.96
2023-01-13T07:04:51.753Z,84.68
2023-01-13T07:07:22.114Z,84.75
2023-01-13T07:09:55.142Z,83.85
2023-01-13T07:12:25.450Z,83.60
2023-01-13T07:15:08.082Z,83.30
2023-01-13T07:17:38.371Z,83.45
2023-01-13T07:20:11.016Z,83.69
2023-01-13T07:22:41.356Z,83.54
2023-01-13T07:25:15.222Z,83.23
2023-01-13T07:27:45.697Z,83.24
2023-01-13T07:30:17.209Z,83.61
2023-01-13T07:32:47.603Z,83.78
2023-01-13T07:35:23.124Z,82.97
2023-01-13T07:37:53.675Z,82.57
2023-01-13T07:40:26.688Z,82.57
2023-01-13T07:43:09.570Z,82.16
2023-01-13T07:45:39.955Z,82.77
2023-01-13T07:48:10.533Z,82.60
2023-01-13T07:50:43.309Z,82.29
2023-01-13T07:53:14.409Z,82.43
2023-01-13T07:55:47.832Z,82.64
2023-01-13T07:58:18.279Z,82.25
2023-01-13T08:00:48.699Z,82.27
2023-01-13T08:03:19.079Z,82.16
2023-01-13T08:05:50.021Z,82.27
2023-01-13T08:08:20.847Z,82.07
2023-01-13T08:10:53.805Z,82.60
2023-01-13T08:13:24.265Z,82.11
2023-01-13T08:16:02.062Z,81.61
2023-01-13T08:18:32.911Z,81.09
2023-01-13T08:21:07.962Z,81.02
2023-01-13T08:23:39.053Z,80.85
2023-01-13T08:26:14.033Z,81.19
2023-01-13T08:28:44.707Z,81.64
2023-01-13T08:31:17.419Z,82.00
2023-01-13T08:33:47.934Z,82.50
2023-01-13T08:36:18.680Z,83.23
2023-01-13T08:38:49.184Z,82.54
2023-01-13T08:41:42.368Z,82.41
2023-01-13T08:44:12.714Z,82.67
2023-01-13T08:46:44.940Z,82.66
2023-01-13T08:49:15.417Z,83.27
2023-01-13T08:51:45.806Z,84.82
2023-01-13T08:54:16.922Z,91.57
2023-01-13T08:56:50.284Z,85.47
2023-01-13T08:59:23.033Z,84.59
2023-01-13T09:01:53.507Z,86.67
2023-01-13T09:04:27.825Z,88.72
2023-01-13T09:06:58.930Z,88.96
2023-01-13T09:09:30.108Z,89.52
2023-01-13T09:12:15.442Z,90.86
2023-01-13T09:14:45.827Z,91.86
2023-01-13T09:17:16.395Z,93.31
2023-01-13T09:19:46.969Z,93.32
2023-01-13T09:22:19.403Z,92.69
2023-01-13T09:24:50.085Z,93.72
2023-01-13T09:27:23.609Z,94.14
2023-01-13T09:29:53.916Z,96.18
2023-01-13T09:32:24.379Z,97.81
2023-01-13T09:35:00.898Z,97.67
2023-01-13T09:37:34.343Z,96.64
2023-01-13T09:40:04.886Z,96.63
2023-01-13T09:43:01.951Z,96.84
2023-01-13T09:45:41.399Z,97.42
2023-01-13T09:48:18.882Z,98.09
2023-01-13T09:51:03.676Z,97.49
2023-01-13T09:53:40.617Z,95.56
2023-01-13T09:56:14.116Z,97.39
2023-01-13T09:58:48.657Z,96.94
2023-01-13T10:01:29.447Z,97.73
2023-01-13T10:04:03.574Z,97.43
2023-01-13T10:06:42.205Z,96.30
2023-01-13T10:09:21.268Z,95.98
2023-01-13T10:12:06.209Z,96.43
2023-01-13T10:14:46.873Z,96.22
2023-01-13T10:17:29.143Z,95.50
2023-01-13T10:20:08.391Z,92.82
2023-01-13T10:22:54.901Z,90.73
2023-01-13T10:25:52.087Z,89.63
2023-01-13T10:28:24.126Z,88.70
2023-01-13T10:30:57.167Z,87.41
2023-01-13T10:33:31.062Z,83.74
2023-01-13T10:36:04.208Z,83.88
2023-01-13T10:38:41.467Z,85.87
2023-01-13T10:41:27.124Z,89.73
2023-01-13T10:44:08.558Z,90.94
2023-01-13T10:46:56.228Z,91.21
2023-01-13T10:49:36.481Z,91.48
2023-01-13T10:52:27.646Z,92.67
2023-01-13T10:55:01.127Z,94.09
2023-01-13T10:57:31.787Z,93.84
2023-01-13T11:00:09.015Z,93.02
2023-01-13T11:02:42.017Z,94.35
2023-01-13T11:05:25.535Z,93.09
2023-01-13T11:07:58.171Z,91.54
2023-01-13T11:10:32.528Z,91.40
2023-01-13T11:13:10.950Z,91.51
2023-01-13T11:15:48.513Z,91.24
2023-01-13T11:18:34.217Z,91.44
2023-01-13T11:21:11.096Z,90.36
2023-01-13T11:23:51.380Z,89.34
2023-01-13T11:26:30.481Z,89.14
2023-01-13T11:29:11.543Z,88.27
2023-01-13T11:31:49.188Z,88.26
2023-01-13T11:34:33.178Z,86.61
2023-01-13T11:37:09.899Z,86.76
2023-01-13T11:39:54.038Z,85.07
2023-01-13T11:42:31.058Z,85.09
2023-01-13T11:45:21.196Z,84.03
2023-01-13T11:47:58.397Z,80.96
2023-01-13T11:50:43.194Z,68.27
2023-01-13T11:53:32.660Z,68.76
2023-01-13T11:56:21.150Z,62.33
2023-01-13T11:59:15.398Z,55.00
2023-01-13T12:02:03.933Z,56.44
2023-01-13T12:04:47.333Z,59.75
2023-01-13T12:07:24.968Z,64.49
2023-01-13T12:10:13.212Z,66.45
2023-01-13T12:13:00.132Z,69.71
2023-01-13T12:15:59.952Z,71.49
2023-01-13T12:19:22.160Z,73.44
2023-01-13T12:22:14.033Z,75.30
2023-01-13T12:24:52.650Z,76.06
2023-01-13T12:27:33.646Z,75.29
2023-01-13T12:30:16.503Z,71.52
2023-01-13T12:32:49.037Z,66.55
2023-01-13T12:35:35.724Z,63.24
2023-01-13T12:38:19.501Z,58.98
2023-01-13T12:41:04.738Z,59.95
2023-01-13T12:43:49.209Z,55.43
2023-01-13T12:46:56.075Z,49.93
2023-01-13T12:49:33.205Z,45.34
2023-01-13T12:52:20.022Z,43.49
2023-01-13T12:55:16.999Z,41.26
2023-01-13T12:58:18.168Z,42.30
2023-01-13T13:01:02.682Z,40.28
2023-01-13T13:03:37.070Z,41.51
2023-01-13T13:06:13.584Z,45.64
2023-01-13T13:09:07.543Z,44.01
2023-01-13T13:11:59.732Z,40.61
2023-01-13T13:15:07.209Z,38.70
2023-01-13T13:17:50.499Z,37.73
2023-01-13T13:21:06.952Z,37.89
2023-01-13T13:24:00.876Z,40.00
2023-01-13T13:26:39.264Z,42.90
2023-01-13T13:29:25.359Z,45.92
2023-01-13T13:32:32.669Z,48.55
2023-01-13T13:35:21.496Z,50.13
2023-01-13T13:38:18.178Z,54.03
2023-01-13T13:41:03.001Z,57.28
2023-01-13T13:43:54.473Z,58.36
2023-01-13T13:46:42.474Z,61.07
2023-01-13T13:49:16.484Z,63.32
2023-01-13T13:51:53.254Z,64.79
2023-01-13T13:54:25.587Z,64.79
2023-01-13T13:56:58.182Z,64.61
2023-01-13T13:59:33.791Z,65.21
2023-01-13T14:02:05.046Z,65.59
2023-01-13T14:04:40.752Z,64.93
2023-01-13T14:07:21.372Z,64.20
2023-01-13T14:09:58.933Z,64.20
2023-01-13T14:12:30.807Z,65.06
2023-01-13T14:15:01.372Z,64.94
2023-01-13T14:17:33.685Z,65.34
2023-01-13T14:20:10.696Z,65.81
2023-01-13T14:22:41.189Z,66.48
2023-01-13T14:25:31.652Z,66.24
2023-01-13T14:28:10.590Z,65.39
2023-01-13T14:30:41.088Z,64.16
2023-01-13T14:33:18.281Z,62.92
2023-01-13T14:36:27.490Z,62.44
2023-01-13T14:39:34.954Z,62.08
2023-01-13T14:42:05.433Z,63.19
2023-01-13T14:44:38.971Z,64.38
2023-01-13T14:47:26.753Z,65.08
2023-01-13T14:50:05.286Z,65.47
2023-01-13T14:52:49.608Z,66.32
2023-01-13T14:55:30.775Z,66.85
2023-01-13T14:58:26.488Z,67.98
2023-01-13T15:01:30.576Z,68.56
2023-01-13T15:04:28.699Z,69.12
2023-01-13T15:07:00.565Z,70.04
2023-01-13T15:09:42.980Z,70.66
2023-01-13T15:12:23.669Z,71.29
2023-01-13T15:14:56.945Z,71.10
2023-01-13T15:17:27.008Z,71.22
2023-01-13T15:19:57.872Z,70.91
2023-01-13T15:22:29.609Z,70.90
2023-01-13T15:25:02.690Z,71.08
2023-01-13T15:27:33.048Z,71.52
2023-01-13T15:30:03.559Z,71.59
2023-01-13T15:32:33.943Z,72.15
2023-01-13T15:35:04.329Z,72.08
2023-01-13T15:37:34.699Z,72.03
2023-01-13T15:40:15.494Z,72.06
2023-01-13T15:42:58.245Z,72.12
2023-01-13T15:45:41.301Z,72.37
2023-01-13T15:48:11.726Z,72.45
2023-01-13T15:50:42.198Z,72.53
2023-01-13T15:53:15.080Z,71.60
2023-01-13T15:55:52.015Z,71.47
2023-01-13T15:58:28.269Z,72.05
2023-01-13T16:00:59.081Z,72.24
2023-01-13T16:03:29.521Z,72.25
2023-01-13T16:05:59.955Z,72.35
2023-01-13T16:08:31.115Z,72.36
2023-01-13T16:11:03.826Z,72.65
2023-01-13T16:13:34.117Z,73.44
2023-01-13T16:16:05.086Z,74.35
2023-01-13T16:18:35.408Z,74.16
2023-01-13T16:21:05.728Z,72.95
2023-01-13T16:23:36.037Z,71.74
2023-01-13T16:26:14.136Z,71.00
2023-01-13T16:28:44.461Z,70.88
2023-01-13T16:31:27.103Z,70.68
2023-01-13T16:33:57.698Z,70.97
2023-01-13T16:36:28.224Z,71.31
2023-01-13T16:39:00.898Z,71.70
2023-01-13T16:41:33.965Z,72.01
2023-01-13T16:44:06.261Z,72.50
2023-01-13T16:46:37.265Z,72.72
2023-01-13T16:49:10.679Z,72.47
2023-01-13T16:51:41.021Z,72.57
2023-01-13T16:54:12.002Z,73.08
2023-01-13T16:56:45.307Z,73.65
2023-01-13T16:59:17.840Z,73.98
2023-01-13T17:01:48.556Z,74.19
2023-01-13T17:04:22.084Z,74.63
2023-01-13T17:07:00.249Z,74.76
2023-01-13T17:09:32.205Z,74.96
2023-01-13T17:12:05.283Z,75.07
2023-01-13T17:14:35.638Z,74.92
2023-01-13T17:17:06.020Z,74.03
2023-01-13T17:19:36.285Z,73.95
2023-01-13T17:22:06.573Z,74.60
2023-01-13T17:24:37.780Z,74.59
2023-01-13T17:27:10.557Z,74.91
2023-01-13T17:29:41.129Z,74.59
2023-01-13T17:32:12.800Z,74.70
2023-01-13T17:34:43.085Z,74.54
2023-01-13T17:37:15.057Z,74.03
2023-01-13T17:39:48.531Z,74.39
2023-01-13T17:42:21.559Z,74.70
2023-01-13T17:44:52.006Z,74.81
2023-01-13T17:47:22.614Z,74.68
2023-01-13T17:49:53.034Z,74.58
2023-01-13T17:52:23.413Z,74.38
2023-01-13T17:54:53.677Z,74.11
2023-01-13T17:57:26.633Z,73.93
2023-01-13T17:59:58.314Z,74.14
2023-01-13T18:02:30.323Z,74.30
2023-01-13T18:05:00.740Z,74.23
2023-01-13T18:07:31.050Z,74.23
2023-01-13T18:10:01.365Z,74.28
2023-01-13T18:12:35.039Z,73.98
2023-01-13T18:15:05.636Z,73.83
2023-01-13T18:17:36.011Z,74.20
2023-01-13T18:20:19.285Z,74.08
2023-01-13T18:23:01.971Z,74.05
2023-01-13T18:25:44.635Z,74.11
2023-01-13T18:28:17.598Z,74.20
2023-01-13T18:30:47.935Z,74.31
2023-01-13T18:33:18.391Z,74.64
2023-01-13T18:35:48.710Z,74.66
2023-01-13T18:38:19.417Z,74.45
2023-01-13T18:40:49.833Z,74.85
2023-01-13T18:43:20.246Z,75.28
2023-01-13T18:45:54.179Z,74.87
2023-01-13T18:48:24.555Z,75.80
2023-01-13T18:50:55.039Z,76.59
2023-01-13T18:53:25.435Z,76.79
2023-01-13T18:55:58.780Z,76.98
2023-01-13T18:58:33.185Z,77.50
2023-01-13T19:01:08.039Z,77.61
2023-01-13T19:03:38.383Z,77.76
2023-01-13T19:06:14.677Z,77.75
2023-01-13T19:08:45.414Z,78.17
2023-01-13T19:11:15.881Z,78.52
2023-01-13T19:13:49.221Z,78.70
2023-01-13T19:16:21.525Z,78.52
2023-01-13T19:18:52.437Z,78.90
2023-01-13T19:21:24.719Z,79.24
2023-01-13T19:23:56.564Z,79.53
2023-01-13T19:26:26.953Z,79.74
2023-01-13T19:28:59.896Z,79.61
2023-01-13T19:31:30.433Z,79.58
2023-01-13T19:34:00.857Z,79.92
2023-01-13T19:36:31.161Z,79.74
2023-01-13T19:39:01.905Z,79.79
2023-01-13T19:41:44.688Z,79.76
2023-01-13T19:44:30.076Z,79.64
2023-01-13T19:47:00.922Z,79.83
2023-01-13T19:49:31.273Z,80.10
2023-01-13T19:52:01.611Z,80.21
2023-01-13T19:54:32.192Z,80.29
2023-01-13T19:57:02.559Z,80.92
2023-01-13T19:59:35.727Z,81.65
2023-01-13T20:02:09.325Z,81.61
2023-01-13T20:04:44.371Z,81.63
2023-01-13T20:07:16.537Z,82.16
2023-01-13T20:09:47.317Z,82.49
2023-01-13T20:12:17.865Z,82.33
2023-01-13T20:14:50.861Z,82.48
2023-01-13T20:17:23.376Z,82.07
2023-01-13T20:19:53.661Z,82.72
2023-01-13T20:22:24.046Z,82.83
2023-01-13T20:24:55.423Z,83.01
2023-01-13T20:27:26.864Z,83.25
2023-01-13T20:29:59.736Z,82.99
2023-01-13T20:32:30.092Z,83.03
2023-01-13T20:35:00.366Z,83.78
2023-01-13T20:37:31.120Z,84.14
2023-01-13T20:40:01.870Z,84.31
2023-01-13T20:42:30.044Z,84.60
2023-01-13T20:45:04.053Z,84.50
2023-01-13T20:47:34.447Z,84.27
2023-01-13T20:50:04.916Z,84.69
2023-01-13T20:52:35.485Z,84.61
2023-01-13T20:55:06.093Z,85.12
2023-01-13T20:57:41.092Z,85.20
2023-01-13T21:00:23.066Z,85.17
2023-01-13T21:02:53.354Z,85.28
2023-01-13T21:05:23.751Z,85.32
2023-01-13T21:07:54.114Z,85.03
2023-01-13T21:10:25.939Z,84.59
2023-01-13T21:13:08.564Z,84.30
2023-01-13T21:15:41.468Z,84.23
2023-01-13T21:18:24.147Z,84.00
2023-01-13T21:21:11.585Z,84.11
2023-01-13T21:23:42.737Z,83.79
2023-01-13T21:26:15.709Z,82.99
2023-01-13T21:28:46.005Z,82.64
2023-01-13T21:31:19.831Z,82.70
2023-01-13T21:33:50.147Z,82.95
2023-01-13T21:36:20.484Z,82.59
2023-01-13T21:38:54.926Z,82.75
2023-01-13T21:41:38.264Z,83.03
2023-01-13T21:44:21.142Z,82.69
2023-01-13T21:47:06.528Z,82.47
2023-01-13T21:49:44.037Z,83.13
2023-01-13T21:52:15.115Z,83.54
2023-01-13T21:54:57.684Z,83.49
2023-01-13T21:57:28.054Z,83.94
2023-01-13T21:59:58.410Z,84.52
2023-01-13T22:02:32.097Z,85.65
2023-01-13T22:05:04.435Z,88.90
2023-01-13T22:07:36.596Z,90.83
2023-01-13T22:10:10.920Z,92.05
2023-01-13T22:12:43.341Z,91.78
2023-01-13T22:15:15.448Z,92.17
2023-01-13T22:17:48.629Z,92.37
2023-01-13T22:20:19.500Z,93.03
2023-01-13T22:22:50.393Z,93.26
2023-01-13T22:25:22.177Z,93.38
2023-01-13T22:28:03.560Z,93.33
2023-01-13T22:30:36.754Z,93.12
2023-01-13T22:33:09.965Z,91.97
2023-01-13T22:35:40.736Z,91.96
2023-01-13T22:38:13.888Z,91.05
2023-01-13T22:40:44.185Z,90.46
2023-01-13T22:43:14.548Z,90.38
2023-01-13T22:45:44.987Z,89.92
2023-01-13T22:48:18.033Z,89.67
2023-01-13T22:50:48.313Z,88.93
2023-01-13T22:53:18.598Z,88.43
2023-01-13T22:55:57.610Z,88.45
2023-01-13T22:58:28.444Z,88.16
2023-01-13T23:00:59.094Z,88.40
2023-01-13T23:03:32.090Z,87.36
2023-01-13T23:06:02.724Z,86.36
2023-01-13T23:08:33.131Z,86.61
2023-01-13T23:11:09.478Z,87.03
2023-01-13T23:13:44.043Z,87.42
2023-01-13T23:16:17.038Z,87.29
2023-01-13T23:18:53.678Z,86.67
2023-01-13T23:21:26.587Z,86.69
2023-01-13T23:23:58.792Z,86.34
2023-01-13T23:26:30.906Z,86.94
2023-01-13T23:29:07.290Z,87.06
2023-01-13T23:31:40.755Z,86.89
2023-01-13T23:34:13.675Z,86.53
2023-01-13T23:36:44.606Z,85.79
2023-01-13T23:39:14.979Z,85.66
2023-01-13T23:41:45.314Z,85.71
2023-01-13T23:44:15.591Z,85.40
2023-01-13T23:46:45.969Z,85.44
2023-01-13T23:49:18.876Z,85.49
2023-01-13T23:51:49.170Z,85.33
2023-01-13T23:54:19.515Z,85.52
2023-01-13T23:56:52.702Z,85.44
2023-01-13T23:59:23.816Z,84.53
